Data for 05/14/2013

Time Sea-Level Adjusted Pressure Absolute Pressure Temperature Relative Humidity Dew Point   
(mb) (inHg) (mb) (inHg) (C) (F) (%) (C) (F)
00:05 1017 30.03 846 24.98 13.6 56.5 59 5.9 42.7
00:10 1017 30.03 846 24.98 13.4 56 60 5.8 42.5
00:15 1017 30.03 846 24.98 13.1 55.5 61 5.7 42.2
00:20 1017 30.03 846 24.98 13 55.4 59 5.3 41.6
00:25 1017 30.03 846 24.98 12.9 55.3 60 5.5 41.8
00:30 1017 30.03 846 24.98 12.7 54.9 60 5.2 41.3
00:35 1017 30.03 846 24.98 12.6 54.6 60 5 40.9
00:40 1017 30.03 846 24.98 12.5 54.5 59 4.9 40.8
00:45 1017 30.03 846 24.98 12.3 54.1 60 4.9 40.8
00:50 1017 30.03 846 24.98 12.1 53.7 60 4.6 40.4
00:55 1017 30.03 846 24.98 12 53.7 60 4.7 40.4
01:00 1017 30.03 846 24.98 12.1 53.7 60 4.6 40.2
01:05 1017 30.03 846 24.98 12.1 53.8 60 4.7 40.4
01:10 1017 30.03 846 24.98 11.7 53.1 63 5.1 41.1
01:15 1017 30.03 846 24.98 11.1 52 64 4.7 40.4
01:20 1017 30.03 846 24.98 11 51.9 65 4.7 40.5
01:25 1017 30.03 846 24.98 10.9 51.7 65 4.6 40.3
01:30 1017 30.03 846 24.98 11.1 51.9 64 4.5 40.1
01:35 1017 30.03 846 24.98 11.4 52.4 62 4.3 39.7
01:40 1017 30.03 846 24.98 11.5 52.8 61 4.3 39.8
01:45 1017 30.03 846 24.98 11.6 52.8 61 4.3 39.8
01:50 1017 30.03 846 24.98 11.4 52.4 62 4.4 39.9
01:55 1017 30.03 846 24.98 11.1 51.9 62 4.2 39.5
02:00 1017 30.03 846 24.98 10.8 51.5 64 4.4 39.9
02:05 1017 30.03 846 24.98 10.4 50.8 65 4.1 39.3
02:10 1017 30.03 846 24.98 10.6 51.1 63 3.9 39
02:15 1017 30.03 846 24.98 10.9 51.6 63 4.1 39.4
02:20 1017 30.03 846 24.98 10.9 51.6 63 4.1 39.3
02:25 1017 30.03 846 24.98 10.9 51.6 63 4 39.3
02:30 1017 30.03 846 24.98 11 51.7 62 4 39.3
02:35 1017 30.03 847 25.01 11 51.8 62 4 39.2
02:40 1017 30.03 847 25.01 11.1 52 61 4 39.1
02:45 1017 30.03 847 25.01 11.3 52.3 61 4.1 39.3
02:50 1017 30.03 847 25.01 11.2 52.2 61 4 39.2
02:55 1017 30.03 847 25.01 11.2 52.2 61 4 39.2
03:00 1017 30.03 847 25.01 11.3 52.3 61 4 39.2
03:05 1017 30.03 847 25.01 11.2 52.2 61 4 39.3
03:10 1017 30.03 847 25.01 10.5 50.8 65 4.2 39.6
03:15 1017 30.03 847 25.01 10.2 50.3 64 3.8 38.8
03:20 1017 30.03 846 24.98 10.5 50.8 63 3.8 38.8
03:25 1017 30.03 847 25.01 10.7 51.3 62 3.8 38.9
03:30 1017 30.03 847 25.01 10.8 51.5 63 4 39.2
03:35 1017 30.03 847 25.01 10.1 50.2 66 4.1 39.3
03:40 1017 30.03 847 25.01 9.8 49.7 67 4 39.3
03:45 1017 30.03 847 25.01 9.7 49.4 67 4 39.2
03:50 1017 30.03 847 25.01 9.6 49.4 67 3.9 39.1
03:55 1017 30.03 846 24.98 9.9 49.7 67 4 39.1
04:00 1017 30.03 846 24.98 10 49.9 66 4 39.1
04:05 1017 30.03 847 25.01 10 50.1 66 4 39.2
04:10 1017 30.03 847 25.01 10.1 50.2 66 4 39.1
04:15 1017 30.03 847 25.01 10 50 66 3.9 39
04:20 1017 30.03 846 24.98 10 50 65 3.7 38.6
04:25 1017 30.03 847 25.01 10.1 50.2 64 3.7 38.6
04:30 1017 30.03 847 25.01 10.1 50.2 65 3.8 38.9
04:35 1017 30.03 847 25.01 9.8 49.7 66 3.9 39
04:40 1017 30.03 847 25.01 9.5 49.2 67 3.8 38.9
04:45 1017 30.03 847 25.01 9.5 49 69 4.1 39.3
04:50 1017 30.03 847 25.01 9.2 48.6 69 3.8 38.8
04:55 1017 30.03 847 25.01 9.2 48.5 69 3.7 38.7
05:00 1017 30.03 847 25.01 9.3 48.7 69 3.8 38.9
05:05 1017 30.03 847 25.01 9.1 48.5 69 3.8 38.9
05:10 1017 30.03 847 25.01 9 48.2 69 3.7 38.7
05:15 1017 30.03 847 25.01 8.9 47.9 69 3.5 38.3
05:20 1017 30.03 847 25.01 9.1 48.3 68 3.4 38.1
05:25 1017 30.03 847 25.01 9 48.2 69 3.6 38.5
05:30 1017 30.03 847 25.01 9 48.2 68 3.5 38.3
05:35 1018 30.06 847 25.01 9 48.3 68 3.5 38.2
05:40 1018 30.06 847 25.01 9.3 48.7 67 3.6 38.5
05:45 1018 30.06 847 25.01 8.9 48.1 69 3.6 38.4
05:50 1018 30.06 847 25.01 9 48.2 68 3.4 38.2
05:55 1018 30.06 847 25.01 9.3 48.8 68 3.7 38.7
06:00 1018 30.06 847 25.01 9.5 49 67 3.7 38.6
06:05 1018 30.06 847 25.01 9.8 49.6 66 3.7 38.6
06:10 1018 30.06 847 25.01 10.5 50.8 62 3.5 38.3
06:15 1018 30.06 847 25.01 11.3 52.3 60 3.9 39
06:20 1018 30.06 847 25.01 11.6 52.9 59 3.9 39
06:25 1018 30.06 847 25.01 12 53.7 57 3.9 39
06:30 1018 30.06 847 25.01 12.4 54.4 57 4.2 39.6
06:35 1018 30.06 847 25.01 12.2 53.9 58 4.2 39.6
06:40 1018 30.06 847 25.01 11.5 52.8 61 4.3 39.7
06:45 1018 30.06 847 25.01 11.8 53.3 57 3.7 38.6
06:50 1018 30.06 847 25.01 12 53.7 58 4.1 39.3
06:55 1018 30.06 847 25.01 12.1 53.7 59 4.4 40
07:00 1018 30.06 847 25.01 12 53.6 59 4.3 39.7
07:05 1018 30.06 847 25.01 11.9 53.3 58 3.9 39
07:10 1018 30.06 847 25.01 12 53.6 58 4 39.3
07:15 1018 30.06 848 25.04 12.4 54.3 58 4.3 39.8
07:20 1018 30.06 848 25.04 12.8 55 54 3.7 38.7
07:25 1018 30.06 848 25.04 13.1 55.5 53 3.7 38.6
07:30 1018 30.06 848 25.04 13.1 55.5 51 3.1 37.7
07:35 1018 30.06 848 25.04 13.5 56.3 49 2.9 37.3
07:40 1018 30.06 848 25.04 13.9 57 45 2.1 35.8
07:45 1018 30.06 848 25.04 14.4 57.9 42 1.6 34.9
07:50 1018 30.06 848 25.04 14.9 58.9 37 0.6 33.1
07:55 1018 30.06 848 25.04 15.2 59.4 34 -0.4 31.2
08:00 1018 30.06 848 25.04 15.5 59.8 32 -1 30.1
08:05 1018 30.06 848 25.04 15.4 59.8 33 -0.6 30.9
08:10 1018 30.06 848 25.04 15.3 59.6 32 -1 30.1
08:15 1018 30.06 848 25.04 15.6 60 31 -1.6 29.1
08:20 1018 30.06 848 25.04 15.6 60 30 -1.9 28.6
08:25 1018 30.06 848 25.04 15.1 59.3 32 -1.5 29.2
08:30 1018 30.06 848 25.04 15.5 59.9 31 -1.7 29
08:35 1018 30.06 848 25.04 15.3 59.6 32 -1.4 29.5
08:40 1018 30.06 847 25.01 15.3 59.6 32 -1.4 29.5
08:45 1018 30.06 847 25.01 15.8 60.4 31 -1.3 29.7
08:50 1018 30.06 847 25.01 16.1 61.1 32 -0.6 31
08:55 1018 30.06 847 25.01 16.2 61.1 32 -0.3 31.5
09:00 1018 30.06 847 25.01 16 60.8 30 -1.3 29.6
09:05 1018 30.06 847 25.01 16.3 61.4 31 -0.9 30.4
09:10 1018 30.06 847 25.01 16.8 62.3 31 -0.3 31.4
09:15 1018 30.06 847 25.01 17.1 62.9 29 -0.8 30.5
09:20 1018 30.06 847 25.01 17.1 62.8 31 -0 31.9
09:25 1018 30.06 847 25.01 17.1 62.7 31 -0.3 31.5
09:30 1018 30.06 847 25.01 16.9 62.4 31 -0.4 31.2
09:35 1018 30.06 847 25.01 17.3 63.1 30 -0.5 31
09:40 1018 30.06 847 25.01 17.4 63.3 31 0.4 32.7
09:45 1018 30.06 847 25.01 17.3 63.1 32 0.4 32.7
09:50 1018 30.06 847 25.01 17.1 62.8 30 -0.4 31.2
09:55 1018 30.06 847 25.01 17.5 63.5 31 0.1 32.2
10:00 1018 30.06 847 25.01 17.1 62.8 30 -0.5 31.2
10:05 1018 30.06 847 25.01 17.5 63.5 29 -0.5 31.1
10:10 1018 30.06 847 25.01 17.4 63.3 30 -0.1 31.8
10:15 1018 30.06 847 25.01 17.2 62.9 30 -0.5 31.1
10:20 1018 30.06 847 25.01 17.2 63 29 -0.8 30.5
10:25 1018 30.06 847 25.01 17.3 63.2 29 -0.7 30.8
10:30 1018 30.06 847 25.01 17.6 63.7 29 -0.5 31
10:35 1018 30.06 847 25.01 17.7 63.9 28 -0.7 30.7
10:40 1018 30.06 847 25.01 18 64.4 29 0 32
10:45 1018 30.06 847 25.01 18.3 64.9 28 -0.3 31.5
10:50 1017 30.03 847 25.01 18.4 65.1 29 0.1 32.2
10:55 1017 30.03 847 25.01 18.1 64.6 29 0.1 32.2
11:00 1017 30.03 847 25.01 18.3 65 28 -0.3 31.4
11:05 1017 30.03 847 25.01 18.8 65.8 28 0.2 32.3
11:10 1017 30.03 846 24.98 19 66.1 28 0.2 32.4
11:15 1017 30.03 846 24.98 19.1 66.4 28 0.2 32.3
11:20 1017 30.03 846 24.98 18.8 65.8 28 0.2 32.3
11:25 1017 30.03 846 24.98 19.1 66.5 28 0.2 32.4
11:30 1017 30.03 846 24.98 18.6 65.4 29 0.4 32.8
11:35 1017 30.03 846 24.98 19 66.2 28 0.2 32.3
11:40 1017 30.03 846 24.98 19.3 66.7 28 0.3 32.6
11:45 1017 30.03 846 24.98 19.2 66.5 27 -0.1 31.7
11:50 1017 30.03 846 24.98 19.3 66.8 27 -0.1 31.8
11:55 1017 30.03 846 24.98 19.8 67.6 26 -0.1 31.8
12:00 1017 30.03 846 24.98 19.8 67.7 25 -0.4 31.3
12:05 1017 30.03 846 24.98 19.4 67 26 -0.3 31.5
12:10 1017 30.03 846 24.98 20 67.9 25 -0.5 31.1
12:15 1016 30 846 24.98 20.4 68.6 24 -0.7 30.8
12:20 1016 30 846 24.98 20.6 69 25 -0.2 31.6
12:25 1016 30 846 24.98 20.8 69.4 24 -0.1 31.8
12:30 1016 30 845 24.95 20.7 69.3 24 -0.2 31.6
12:35 1016 30 845 24.95 21 69.8 24 -0.2 31.6
12:40 1016 30 845 24.95 21 69.9 24 -0 32
12:45 1016 30 845 24.95 20.7 69.2 24 -0.7 30.7
12:50 1016 30 845 24.95 21.2 70.1 24 0 32
12:55 1016 30 845 24.95 20.9 69.6 24 -0.4 31.2
13:00 1016 30 845 24.95 21.4 70.4 23 -0.6 31
13:05 1016 30 845 24.95 21.3 70.3 23 -0.7 30.7
13:10 1016 30 845 24.95 21.4 70.4 22 -0.8 30.6
13:15 1016 30 845 24.95 21.4 70.6 22 -0.7 30.7
13:20 1016 30 845 24.95 21.4 70.5 22 -0.9 30.4
13:25 1016 30 845 24.95 21.2 70.2 22 -1 30.2
13:30 1016 30 845 24.95 21.3 70.4 22 -1.1 30
13:35 1016 30 845 24.95 21.9 71.4 20 -1.8 28.7
13:40 1015 29.97 845 24.95 21.9 71.3 22 -0.4 31.4
13:45 1015 29.97 845 24.95 20.9 69.6 23 -0.7 30.8
13:50 1015 29.97 844 24.92 20.7 69.3 22 -1.9 28.7
13:55 1015 29.97 844 24.92 21.3 70.4 22 -1.3 29.6
14:00 1015 29.97 844 24.92 21.5 70.6 21 -1.5 29.4
14:05 1015 29.97 844 24.92 21.6 70.9 21 -1.2 29.8
14:10 1015 29.97 844 24.92 21.3 70.3 21 -1.5 29.2
14:15 1015 29.97 844 24.92 21.9 71.4 22 -0.6 30.9
14:20 1015 29.97 844 24.92 21.2 70.1 22 -1.4 29.5
14:25 1015 29.97 844 24.92 21.5 70.8 21 -1.7 29
14:30 1015 29.97 844 24.92 22.2 71.9 19 -2 28.3
14:35 1015 29.97 844 24.92 22.8 73 19 -1.7 29
14:40 1015 29.97 844 24.92 23 73.5 20 -1.1 30
14:45 1015 29.97 844 24.92 22.9 73.2 19 -2 28.3
14:50 1015 29.97 844 24.92 23 73.3 18 -2.3 27.8
14:55 1015 29.97 844 24.92 22.7 72.9 19 -1.6 29
15:00 1015 29.97 844 24.92 23.2 73.7 19 -1.6 29.2
15:05 1014 29.94 844 24.92 23.2 73.7 18 -2.4 27.8
15:10 1014 29.94 844 24.92 22.3 72.1 21 -1.1 30.1
15:15 1014 29.94 844 24.92 21.9 71.5 21 -1.4 29.5
15:20 1014 29.94 844 24.92 22.2 72 19 -2.4 27.6
15:25 1014 29.94 843 24.89 21.8 71.3 21 -1.4 29.4
15:30 1014 29.94 843 24.89 22.5 72.4 18 -3 26.7
15:35 1014 29.94 843 24.89 22.9 73.2 18 -2.3 27.8
15:40 1014 29.94 843 24.89 22.1 71.7 18 -2.9 26.8
15:45 1014 29.94 843 24.89 23.1 73.6 19 -1.8 28.8
15:50 1014 29.94 843 24.89 22.9 73.2 17 -3.4 25.8
15:55 1014 29.94 843 24.89 23 73.4 17 -2.8 26.9
16:00 1014 29.94 843 24.89 22.8 73.1 18 -2.9 26.8
16:05 1014 29.94 843 24.89 23 73.4 18 -2.2 28.1
16:10 1014 29.94 843 24.89 22.4 72.3 18 -3.2 26.2
16:15 1014 29.94 843 24.89 23.5 74.2 17 -3 26.5
16:20 1014 29.94 843 24.89 23.5 74.2 17 -2.9 26.8
16:25 1014 29.94 843 24.89 23.4 74.1 17 -3.1 26.5
16:30 1014 29.94 843 24.89 23.5 74.4 16 -3.2 26.3
16:35 1014 29.94 843 24.89 23.2 73.7 17 -3.2 26.2
16:40 1014 29.94 843 24.89 23.2 73.8 17 -3 26.5
16:45 1014 29.94 843 24.89 23.2 73.8 17 -3.2 26.3
16:50 1014 29.94 843 24.89 23.1 73.5 17 -3.5 25.7
16:55 1014 29.94 843 24.89 23.4 74.2 15 -4.3 24.3
17:00 1014 29.94 843 24.89 23.3 74 16 -4.1 24.7
17:05 1014 29.94 843 24.89 23.4 74 15 -4.1 24.6
17:10 1014 29.94 843 24.89 23.2 73.7 15 -4.5 23.9
17:15 1014 29.94 843 24.89 22.4 72.3 17 -3.7 25.4
17:20 1014 29.94 843 24.89 22.4 72.4 16 -4.6 23.8
17:25 1014 29.94 843 24.89 22.1 71.7 15 -5.2 22.7
17:30 1014 29.94 843 24.89 22.1 71.8 16 -5 23.1
17:35 1014 29.94 843 24.89 22.5 72.5 15 -5.6 21.9
17:40 1014 29.94 843 24.89 22.4 72.2 15 -5.4 22.3
17:45 1014 29.94 843 24.89 22.1 71.7 15 -5.6 22
17:50 1014 29.94 843 24.89 22.2 71.9 15 -5.8 21.6
17:55 1014 29.94 843 24.89 22.3 72.1 14 -6.3 20.6
18:00 1014 29.94 843 24.89 22.3 72.2 14 -6.4 20.5
18:05 1014 29.94 843 24.89 21.7 71 15 -6.3 20.7
18:10 1014 29.94 843 24.89 21.5 70.7 15 -6.2 20.8
18:15 1014 29.94 843 24.89 21.4 70.5 15 -6.2 20.9
18:20 1014 29.94 843 24.89 21.3 70.3 15 -6 21.3
18:25 1014 29.94 843 24.89 21.3 70.3 15 -6.2 20.8
18:30 1014 29.94 843 24.89 21 69.9 15 -6.2 20.8
18:35 1014 29.94 843 24.89 20.9 69.6 15 -6.3 20.6
18:40 1014 29.94 843 24.89 20.8 69.4 17 -5.1 22.8
18:45 1014 29.94 844 24.92 20.6 69 15 -6.5 20.3
18:50 1014 29.94 844 24.92 20.4 68.8 16 -5.8 21.5
18:55 1015 29.97 844 24.92 20.3 68.5 17 -5.6 22
19:00 1015 29.97 844 24.92 19.9 67.9 17 -5.6 21.9
19:05 1015 29.97 844 24.92 19.7 67.4 18 -4.9 23.2
19:10 1015 29.97 844 24.92 19.4 66.9 18 -5.3 22.5
19:15 1015 29.97 844 24.92 19.1 66.4 18 -5.6 22
19:20 1015 29.97 844 24.92 18.8 65.9 18 -5.6 21.9
19:25 1015 29.97 844 24.92 18.5 65.3 18 -6.1 21
19:30 1015 29.97 844 24.92 18.1 64.6 18 -6.3 20.6
19:35 1015 29.97 844 24.92 17.9 64.2 19 -5.9 21.4
19:40 1015 29.97 844 24.92 17.6 63.7 20 -5.8 21.5
19:45 1015 29.97 844 24.92 17.4 63.2 19 -6.7 19.9
19:50 1015 29.97 844 24.92 17.1 62.7 18 -7 19.4
19:55 1015 29.97 844 24.92 16.8 62.2 19 -7 19.4
20:00 1016 30 845 24.95 16.6 61.8 19 -6.8 19.7
20:05 1016 30 845 24.95 16.3 61.3 19 -7 19.4
20:10 1016 30 845 24.95 16 60.7 20 -6.7 20
20:15 1016 30 845 24.95 15.9 60.7 20 -6.7 20
20:20 1016 30 845 24.95 16.1 61 20 -6.6 20.1
20:25 1016 30 845 24.95 16.1 61 21 -5.9 21.3
20:30 1016 30 845 24.95 15.1 59.2 23 -5.6 21.9
20:35 1016 30 846 24.98 14.9 58.7 23 -6.2 20.8
20:40 1016 30 846 24.98 15.2 59.3 22 -6.3 20.7
20:45 1016 30 846 24.98 15.3 59.6 21 -6.7 20
20:50 1017 30.03 846 24.98 15.3 59.5 21 -6.7 19.9
20:55 1017 30.03 846 24.98 15 58.9 22 -6.8 19.8
21:00 1017 30.03 846 24.98 14.7 58.5 26 -4.6 23.7
21:05 1017 30.03 846 24.98 14.4 57.9 24 -5.8 21.5
21:10 1017 30.03 846 24.98 14 57.3 24 -6.2 20.8
21:15 1017 30.03 846 24.98 14.1 57.4 25 -5.8 21.5
21:20 1017 30.03 846 24.98 13.6 56.4 27 -5 23.1
21:25 1017 30.03 846 24.98 13.2 55.7 28 -5 22.9
21:30 1017 30.03 846 24.98 13.1 55.6 27 -5.6 22
21:35 1017 30.03 846 24.98 13.3 55.9 27 -5.4 22.3
21:40 1017 30.03 846 24.98 13.2 55.8 28 -4.8 23.3
21:45 1017 30.03 846 24.98 12.8 55 30 -4.2 24.5
21:50 1017 30.03 846 24.98 13 55.5 29 -4.7 23.6
21:55 1017 30.03 846 24.98 12.8 55.1 31 -3.6 25.4
22:00 1017 30.03 847 25.01 12.5 54.4 28 -5.3 22.4
22:05 1017 30.03 847 25.01 12.5 54.4 33 -3.5 25.8
22:10 1018 30.06 847 25.01 12.2 53.9 35 -2.7 27.1
22:15 1018 30.06 847 25.01 11.9 53.3 30 -4.9 23.1
22:20 1018 30.06 847 25.01 12.5 54.5 29 -4.9 23.1
22:25 1018 30.06 847 25.01 12.5 54.6 31 -4 24.8
22:30 1018 30.06 847 25.01 11.7 53.1 35 -3.1 26.5
22:35 1018 30.06 847 25.01 11.1 51.9 35 -3.7 25.3
22:40 1018 30.06 847 25.01 10.8 51.4 36 -3.6 25.4
22:45 1018 30.06 847 25.01 10.9 51.6 35 -3.8 25.2
22:50 1018 30.06 847 25.01 10.9 51.6 35 -3.7 25.3
22:55 1018 30.06 847 25.01 11 51.8 33 -4.6 23.8
23:00 1018 30.06 847 25.01 11.8 53.3 30 -5.1 22.9
23:05 1018 30.06 847 25.01 12.2 54 29 -5.4 22.3
23:10 1018 30.06 847 25.01 12.7 54.8 29 -4.8 23.3
23:15 1018 30.06 847 25.01 12.4 54.3 30 -4.8 23.4
23:20 1018 30.06 847 25.01 12.2 53.9 30 -5 22.9
23:25 1018 30.06 847 25.01 12 53.6 30 -4.9 23.2
23:30 1018 30.06 847 25.01 11.9 53.4 31 -4.5 24
23:35 1018 30.06 848 25.04 11.1 52 38 -2.5 27.5
23:40 1018 30.06 848 25.04 10 50 38 -3.6 25.6
23:45 1018 30.06 848 25.04 10 49.9 39 -3.4 25.9
23:50 1018 30.06 848 25.04 9.8 49.6 40 -3.1 26.5
23:55 1018 30.06 848 25.04 9.5 49.1 41 -3 26.6
24:00 1018 30.06 848 25.04 9.5 49.2 40 -3.3 26.1